Time;durP1;ratioP1;P1;durP2;ratioP2;P2;SDS_P1;SDS_P2;PMS_P1;PMS_P2;Temp;Humidity;BMP_temperature;BMP_pressure;BME280_temperature;BME280_humidity;BME280_pressure;Samples;Min_cycle;Max_cycle;Signal;HPM_P1;HPM_P2
2023/07/20 00:01:24;;;;;;;5.60;5.03;;;16.50;99.90;;;;;;5039166;28;20495;-65
2023/07/20 00:03:54;;;;;;;4.43;4.03;;;16.40;99.90;;;;;;5042314;28;20179;-66
2023/07/20 00:06:29;;;;;;;7.17;5.07;;;16.40;99.90;;;;;;5044439;28;20182;-68
2023/07/20 00:08:55;;;;;;;5.53;5.03;;;16.40;99.90;;;;;;5038973;28;20432;-66
2023/07/20 00:11:25;;;;;;;5.23;4.73;;;16.40;99.90;;;;;;5041503;28;20529;-66
2023/07/20 00:13:51;;;;;;;5.57;4.87;;;16.40;99.90;;;;;;5041232;28;20438;-66
2023/07/20 00:16:16;;;;;;;4.60;4.30;;;16.30;99.90;;;;;;5040864;28;20445;-66
2023/07/20 00:18:42;;;;;;;5.40;4.90;;;16.30;99.90;;;;;;5042849;28;20175;-67
2023/07/20 00:21:09;;;;;;;6.00;5.40;;;16.20;99.90;;;;;;5040864;28;20180;-66
2023/07/20 00:23:34;;;;;;;5.40;4.87;;;16.20;99.90;;;;;;5040177;28;20188;-66
2023/07/20 00:26:00;;;;;;;5.60;4.57;;;16.20;99.90;;;;;;5038215;28;20530;-66
2023/07/20 00:28:26;;;;;;;4.77;4.37;;;16.20;99.90;;;;;;5044794;28;20530;-67
2023/07/20 00:30:52;;;;;;;6.23;4.60;;;16.20;99.90;;;;;;5023397;28;20172;-67
2023/07/20 00:33:18;;;;;;;5.23;4.80;;;16.20;99.90;;;;;;5041555;28;20273;-67
2023/07/20 00:35:44;;;;;;;4.90;4.50;;;16.10;99.90;;;;;;5042661;28;20659;-66
2023/07/20 00:38:10;;;;;;;5.53;4.40;;;16.10;99.90;;;;;;5039850;28;20479;-66
2023/07/20 00:40:39;;;;;;;7.63;5.17;;;16.10;99.90;;;;;;5043345;28;20994;-66
2023/07/20 00:43:05;;;;;;;6.07;5.47;;;16.10;99.90;;;;;;5030489;28;20470;-66
2023/07/20 00:45:32;;;;;;;6.80;5.63;;;16.10;99.90;;;;;;5044576;28;20497;-66
2023/07/20 00:47:58;;;;;;;6.10;4.73;;;16.00;99.90;;;;;;5045674;28;20173;-66
2023/07/20 00:50:28;;;;;;;5.87;5.47;;;16.00;99.90;;;;;;5040318;28;20430;-66
2023/07/20 00:52:55;;;;;;;6.80;6.20;;;16.00;99.90;;;;;;5048774;28;20434;-66
2023/07/20 00:55:22;;;;;;;6.17;5.40;;;16.00;99.90;;;;;;5044291;28;20462;-66
2023/07/20 00:57:47;;;;;;;6.93;6.20;;;15.90;99.90;;;;;;5055722;28;20469;-66
2023/07/20 01:00:14;;;;;;;9.00;6.30;;;15.90;99.90;;;;;;5043877;28;20473;-66
2023/07/20 01:02:39;;;;;;;6.10;5.60;;;15.90;99.90;;;;;;5048085;28;20232;-66
2023/07/20 01:05:06;;;;;;;6.43;5.93;;;15.90;99.90;;;;;;5053380;28;21020;-66
2023/07/20 01:07:40;;;;;;;6.90;6.30;;;15.90;99.90;;;;;;5044457;28;20172;-66
2023/07/20 01:10:31;;;;;;;7.10;5.73;;;15.90;99.90;;;;;;5046096;28;20442;-66
2023/07/20 01:12:57;;;;;;;7.47;6.77;;;16.00;99.90;;;;;;5044198;28;20800;-68
2023/07/20 01:15:23;;;;;;;8.00;5.53;;;16.00;99.90;;;;;;5035092;28;20455;-67
2023/07/20 01:17:48;;;;;;;6.60;6.10;;;16.00;99.90;;;;;;5038547;28;20440;-66
2023/07/20 01:20:17;;;;;;;8.13;7.43;;;16.10;99.90;;;;;;5041688;28;20181;-66
2023/07/20 01:23:01;;;;;;;6.30;5.80;;;16.10;99.90;;;;;;5050438;28;20210;-67
2023/07/20 01:25:53;;;;;;;5.23;4.83;;;16.10;99.90;;;;;;5042192;28;20451;-67
2023/07/20 01:28:56;;;;;;;6.10;5.60;;;16.10;99.90;;;;;;5039277;28;21135;-66
2023/07/20 01:31:25;;;;;;;6.60;5.57;;;16.10;99.90;;;;;;5024915;28;20930;-66
2023/07/20 01:33:54;;;;;;;7.33;5.33;;;16.10;99.90;;;;;;5044087;28;20503;-66
2023/07/20 01:36:21;;;;;;;7.73;7.03;;;16.00;99.90;;;;;;5040622;28;20439;-66
2023/07/20 01:38:47;;;;;;;5.73;5.20;;;16.10;99.90;;;;;;5032696;28;20808;-66
2023/07/20 01:41:14;;;;;;;6.20;5.60;;;16.00;99.90;;;;;;5040483;28;20450;-67
2023/07/20 01:43:40;;;;;;;7.27;6.60;;;16.00;99.90;;;;;;5045323;28;20429;-66
2023/07/20 01:46:06;;;;;;;5.63;5.03;;;16.00;99.90;;;;;;5041690;28;20425;-67
2023/07/20 01:48:31;;;;;;;6.07;5.57;;;16.00;99.90;;;;;;5044175;28;20429;-66
2023/07/20 01:50:57;;;;;;;7.10;5.90;;;16.00;99.90;;;;;;5045029;28;20177;-67
2023/07/20 01:53:23;;;;;;;7.00;6.40;;;16.00;99.90;;;;;;5043484;28;20171;-67
2023/07/20 01:55:48;;;;;;;6.17;5.57;;;16.00;99.90;;;;;;5041928;28;20218;-66
2023/07/20 01:58:14;;;;;;;5.70;5.30;;;16.00;99.90;;;;;;5047207;28;20174;-67
2023/07/20 02:00:39;;;;;;;6.53;6.00;;;16.00;99.90;;;;;;5048624;28;20180;-66
2023/07/20 02:03:05;;;;;;;8.97;6.23;;;15.90;99.90;;;;;;5091988;23;20234;-69
2023/07/20 02:05:31;;;;;;;12.03;7.27;;;15.90;99.90;;;;;;5050296;28;20205;-69
2023/07/20 02:07:56;;;;;;;6.93;6.33;;;15.80;99.90;;;;;;5056513;28;20240;-69
2023/07/20 02:10:22;;;;;;;6.37;5.87;;;15.80;99.90;;;;;;5054548;28;20187;-70
2023/07/20 02:12:48;;;;;;;6.40;5.90;;;15.90;99.90;;;;;;5046011;28;20240;-70
2023/07/20 02:15:16;;;;;;;8.93;5.73;;;15.90;99.90;;;;;;5062601;28;20438;-70
2023/07/20 02:17:42;;;;;;;6.60;6.00;;;15.90;99.90;;;;;;5065348;28;20206;-70
2023/07/20 02:20:09;;;;;;;6.83;6.20;;;15.90;99.90;;;;;;5061189;28;20537;-70
2023/07/20 02:22:36;;;;;;;6.60;6.00;;;15.90;99.90;;;;;;5062468;28;21005;-70
2023/07/20 02:25:06;;;;;;;6.93;6.30;;;15.90;99.90;;;;;;5062351;28;20655;-71
2023/07/20 02:27:35;;;;;;;9.30;7.30;;;15.80;99.90;;;;;;5065906;28;20497;-70
2023/07/20 02:30:02;;;;;;;7.63;6.90;;;15.80;99.90;;;;;;5062494;28;20536;-70
2023/07/20 02:32:28;;;;;;;9.23;8.33;;;15.80;99.90;;;;;;5060890;28;20437;-70
2023/07/20 02:34:53;;;;;;;12.90;8.80;;;15.80;99.90;;;;;;5060488;28;21091;-70
2023/07/20 02:37:19;;;;;;;9.00;8.20;;;15.80;99.90;;;;;;5063064;28;20464;-69
2023/07/20 02:39:45;;;;;;;12.80;10.13;;;15.80;99.90;;;;;;5062547;28;20186;-70
2023/07/20 02:42:10;;;;;;;10.50;9.50;;;15.80;99.90;;;;;;5067602;28;20234;-71
2023/07/20 02:44:36;;;;;;;11.50;10.40;;;15.80;99.90;;;;;;5071725;28;20203;-70
2023/07/20 02:47:02;;;;;;;10.40;8.80;;;15.80;99.90;;;;;;5066068;28;20203;-71
2023/07/20 02:49:28;;;;;;;14.63;10.30;;;15.80;99.90;;;;;;5068371;28;20183;-71
2023/07/20 02:51:54;;;;;;;10.07;9.07;;;15.80;99.90;;;;;;5067470;28;20638;-72
2023/07/20 02:54:19;;;;;;;12.00;10.90;;;15.80;99.90;;;;;;5062345;28;20540;-71
2023/07/20 02:56:45;;;;;;;10.00;9.10;;;15.80;99.90;;;;;;5074692;28;20979;-71
2023/07/20 02:59:11;;;;;;;10.00;9.00;;;15.80;99.90;;;;;;5073195;28;20196;-71
2023/07/20 03:01:36;;;;;;;10.50;9.57;;;15.80;99.90;;;;;;5074431;28;20208;-70
2023/07/20 03:04:02;;;;;;;10.37;9.50;;;15.80;99.90;;;;;;5076443;28;20244;-71
2023/07/20 03:06:28;;;;;;;10.73;9.67;;;15.80;99.90;;;;;;5063328;28;20186;-70
2023/07/20 03:08:53;;;;;;;10.00;9.20;;;15.70;99.90;;;;;;5061018;28;20214;-69
2023/07/20 03:11:20;;;;;;;10.20;9.30;;;15.80;99.90;;;;;;5065369;28;20172;-70
2023/07/20 03:13:46;;;;;;;10.30;9.30;;;15.70;99.90;;;;;;5057312;28;20194;-71
2023/07/20 03:16:15;;;;;;;11.07;9.97;;;15.70;99.90;;;;;;5061872;28;20438;-71
2023/07/20 03:18:41;;;;;;;10.80;9.67;;;15.80;99.90;;;;;;5063958;28;20550;-72
2023/07/20 03:21:08;;;;;;;15.87;11.77;;;15.80;99.90;;;;;;5057571;28;20436;-70
2023/07/20 03:23:34;;;;;;;11.83;10.73;;;15.70;99.90;;;;;;5060173;28;20451;-70
2023/07/20 03:26:03;;;;;;;11.03;9.60;;;15.70;99.90;;;;;;5065788;28;20424;-70
2023/07/20 03:28:28;;;;;;;10.90;9.80;;;15.70;99.90;;;;;;5069399;28;20515;-70
2023/07/20 03:30:58;;;;;;;10.73;9.70;;;15.70;99.90;;;;;;5066691;28;20440;-71
2023/07/20 03:33:27;;;;;;;12.97;11.63;;;15.70;99.90;;;;;;5066131;28;20283;-70
2023/07/20 03:35:54;;;;;;;11.00;9.67;;;15.70;99.90;;;;;;5066665;28;20444;-70
2023/07/20 03:38:20;;;;;;;12.60;11.20;;;15.70;99.90;;;;;;5063019;28;20468;-71
2023/07/20 03:40:50;;;;;;;12.67;9.50;;;15.70;99.90;;;;;;5072218;28;20440;-71
2023/07/20 03:43:15;;;;;;;11.50;10.43;;;15.70;99.90;;;;;;5062463;28;20840;-71
2023/07/20 03:45:41;;;;;;;12.13;10.30;;;15.80;99.90;;;;;;5066229;28;20441;-71
2023/07/20 03:48:06;;;;;;;10.37;9.20;;;15.80;99.90;;;;;;5065704;28;20183;-71
2023/07/20 03:50:33;;;;;;;10.60;9.20;;;15.80;99.90;;;;;;5066612;28;20179;-70
2023/07/20 03:52:58;;;;;;;11.97;10.10;;;15.70;99.90;;;;;;5064270;28;20274;-71
2023/07/20 03:55:24;;;;;;;9.63;8.63;;;15.70;99.90;;;;;;5060883;28;20999;-70
2023/07/20 03:57:50;;;;;;;13.60;9.10;;;15.70;99.90;;;;;;5072238;28;20290;-70
2023/07/20 04:00:17;;;;;;;10.13;9.13;;;15.70;99.90;;;;;;5066009;28;20186;-70
2023/07/20 04:02:42;;;;;;;10.20;8.20;;;15.70;99.90;;;;;;5069302;28;20465;-70
2023/07/20 04:05:08;;;;;;;9.63;8.73;;;15.80;99.90;;;;;;5067346;28;20460;-70
2023/07/20 04:07:34;;;;;;;10.90;9.70;;;15.80;99.90;;;;;;5068323;28;20253;-70
2023/07/20 04:09:59;;;;;;;9.40;8.50;;;15.80;99.90;;;;;;5067326;28;20652;-71
2023/07/20 04:12:25;;;;;;;10.87;9.77;;;15.80;99.90;;;;;;5067433;28;20184;-71
2023/07/20 04:14:51;;;;;;;11.83;10.60;;;15.90;99.90;;;;;;5065965;28;20736;-71
2023/07/20 04:17:17;;;;;;;10.47;9.43;;;15.80;99.90;;;;;;5073131;28;20530;-70
2023/07/20 04:19:43;;;;;;;12.57;9.93;;;15.90;99.90;;;;;;5072238;28;20711;-71
2023/07/20 04:22:09;;;;;;;10.63;9.63;;;15.90;99.90;;;;;;5060550;28;20468;-71
2023/07/20 04:24:34;;;;;;;11.60;10.50;;;15.90;99.90;;;;;;5066071;28;20294;-71
2023/07/20 04:27:00;;;;;;;13.73;8.77;;;16.00;99.90;;;;;;5071729;28;20179;-71
2023/07/20 04:29:25;;;;;;;10.07;9.07;;;16.00;99.90;;;;;;5078912;28;20289;-71
2023/07/20 04:31:51;;;;;;;11.53;9.00;;;15.90;99.90;;;;;;5059778;28;20361;-70
2023/07/20 04:34:16;;;;;;;9.23;8.33;;;15.90;99.90;;;;;;5065111;28;20203;-70
2023/07/20 04:36:42;;;;;;;9.90;8.90;;;15.90;99.90;;;;;;5086565;28;20207;-70
2023/07/20 04:39:09;;;;;;;8.67;7.87;;;15.90;99.90;;;;;;5064260;28;20212;-69
2023/07/20 04:41:35;;;;;;;9.83;8.80;;;16.00;99.90;;;;;;5064712;28;20695;-70
2023/07/20 04:44:01;;;;;;;8.97;8.07;;;16.10;99.90;;;;;;5059247;28;20494;-70
2023/07/20 04:46:26;;;;;;;10.13;9.23;;;16.20;99.90;;;;;;5062282;28;20435;-70
2023/07/20 04:48:55;;;;;;;8.73;7.93;;;16.20;99.90;;;;;;5067675;28;20186;-70
2023/07/20 04:51:20;;;;;;;9.43;8.63;;;16.30;99.90;;;;;;5063860;28;20227;-70
2023/07/20 04:53:49;;;;;;;9.50;8.60;;;16.20;99.90;;;;;;5067948;28;20447;-70
2023/07/20 04:56:14;;;;;;;12.23;9.00;;;16.10;99.90;;;;;;5071418;28;20547;-70
2023/07/20 04:58:40;;;;;;;9.27;8.40;;;16.00;99.90;;;;;;5080878;28;20429;-71
2023/07/20 05:01:05;;;;;;;9.00;8.17;;;16.00;99.90;;;;;;5077581;28;20182;-70
2023/07/20 05:03:31;;;;;;;9.07;8.27;;;16.10;99.90;;;;;;5083491;28;20241;-71
2023/07/20 05:05:57;;;;;;;9.63;7.30;;;16.30;99.90;;;;;;5070705;28;20229;-71
2023/07/20 05:08:23;;;;;;;9.93;8.77;;;16.50;99.90;;;;;;5063637;28;20218;-71
2023/07/20 05:10:48;;;;;;;8.53;7.83;;;16.60;99.90;;;;;;5067096;28;20487;-71
2023/07/20 05:13:14;;;;;;;7.20;6.60;;;16.70;99.90;;;;;;5061935;28;20637;-71
2023/07/20 05:15:40;;;;;;;8.13;6.87;;;16.90;99.90;;;;;;5066756;28;20258;-71
2023/07/20 05:18:05;;;;;;;6.67;6.10;;;16.60;99.90;;;;;;5066357;28;20271;-70
2023/07/20 05:20:33;;;;;;;7.13;6.53;;;16.80;99.90;;;;;;5066505;28;20184;-71
2023/07/20 05:22:58;;;;;;;6.10;5.53;;;17.00;99.90;;;;;;5068470;28;20715;-70
2023/07/20 05:25:24;;;;;;;7.73;7.00;;;17.20;99.90;;;;;;5059755;28;20447;-70
2023/07/20 05:27:50;;;;;;;9.33;6.33;;;17.10;99.90;;;;;;5066315;28;20433;-70
2023/07/20 05:30:16;;;;;;;7.40;6.60;;;17.20;99.90;;;;;;5058136;28;20185;-70
2023/07/20 05:32:42;;;;;;;7.00;6.40;;;16.90;99.90;;;;;;5065387;28;20438;-70
2023/07/20 05:35:08;;;;;;;7.30;6.60;;;17.00;99.90;;;;;;5070620;28;21022;-70
2023/07/20 05:37:34;;;;;;;6.67;5.60;;;17.40;99.90;;;;;;5061526;28;20175;-70
2023/07/20 05:40:00;;;;;;;5.53;5.03;;;17.50;99.90;;;;;;5063633;28;20776;-70
2023/07/20 05:42:25;;;;;;;4.87;4.47;;;17.90;99.90;;;;;;5064235;28;20684;-70
2023/07/20 05:44:52;;;;;;;6.17;5.70;;;18.20;99.90;;;;;;5062269;28;20196;-70
2023/07/20 05:47:18;;;;;;;5.90;5.43;;;18.40;99.90;;;;;;5066576;28;20173;-70
2023/07/20 05:49:44;;;;;;;5.07;4.67;;;18.80;99.90;;;;;;5067865;28;20451;-71
2023/07/20 05:52:09;;;;;;;5.50;5.00;;;18.90;99.90;;;;;;5063025;28;20193;-70
2023/07/20 05:54:35;;;;;;;5.47;4.77;;;19.10;99.90;;;;;;5067701;28;20226;-70
2023/07/20 05:57:00;;;;;;;4.33;4.00;;;18.60;99.90;;;;;;5066194;28;20248;-72
2023/07/20 05:59:29;;;;;;;5.83;5.27;;;18.40;99.90;;;;;;5065008;28;20199;-71
2023/07/20 06:01:55;;;;;;;5.90;5.30;;;18.40;99.90;;;;;;5064352;28;20199;-70
2023/07/20 06:04:20;;;;;;;6.07;5.57;;;18.50;99.90;;;;;;5066256;28;20461;-70
2023/07/20 06:06:46;;;;;;;4.77;4.40;;;18.60;99.90;;;;;;5064675;28;20174;-69
2023/07/20 06:09:12;;;;;;;5.70;5.20;;;18.20;99.90;;;;;;5067593;28;20181;-70
2023/07/20 06:11:38;;;;;;;5.00;4.63;;;18.30;99.90;;;;;;5066487;28;20432;-70
2023/07/20 06:14:04;;;;;;;7.47;5.10;;;18.30;99.90;;;;;;5060505;28;20191;-71
2023/07/20 06:16:30;;;;;;;6.57;6.07;;;18.20;99.90;;;;;;5068127;28;20444;-71
2023/07/20 06:18:56;;;;;;;5.70;5.30;;;18.00;99.90;;;;;;5065708;28;20177;-70
2023/07/20 06:21:22;;;;;;;6.60;4.90;;;18.10;99.90;;;;;;5065031;28;20206;-71
2023/07/20 06:23:47;;;;;;;6.73;5.73;;;18.50;99.90;;;;;;5064270;28;20477;-71
2023/07/20 06:26:13;;;;;;;5.77;5.27;;;18.10;99.90;;;;;;5065709;28;20716;-69
2023/07/20 06:28:38;;;;;;;5.40;4.90;;;17.80;99.90;;;;;;5066781;28;20178;-71
2023/07/20 06:31:04;;;;;;;6.57;4.50;;;18.10;99.90;;;;;;5062286;28;20178;-71
2023/07/20 06:33:30;;;;;;;5.43;5.03;;;18.60;99.90;;;;;;5061663;28;20202;-71
2023/07/20 06:35:56;;;;;;;4.83;4.43;;;18.90;99.90;;;;;;5065649;28;20703;-71
2023/07/20 06:38:23;;;;;;;8.40;4.97;;;18.80;99.90;;;;;;5063567;28;20434;-71
2023/07/20 06:40:49;;;;;;;4.93;3.50;;;18.90;99.90;;;;;;5064877;28;20456;-71
2023/07/20 06:43:15;;;;;;;3.73;3.43;;;19.20;99.90;;;;;;5047067;28;20860;-69
2023/07/20 06:45:41;;;;;;;3.40;3.20;;;19.20;99.90;;;;;;5058268;28;20519;-70
2023/07/20 06:48:07;;;;;;;3.40;3.20;;;18.90;99.90;;;;;;5031845;28;20431;-70
2023/07/20 06:50:33;;;;;;;4.40;3.50;;;18.60;99.90;;;;;;5061995;28;20527;-70
2023/07/20 06:52:59;;;;;;;3.77;3.47;;;18.40;99.90;;;;;;5063338;28;20196;-70
2023/07/20 06:55:25;;;;;;;3.13;2.83;;;18.70;99.90;;;;;;5057956;28;20209;-68
2023/07/20 06:57:51;;;;;;;4.97;2.97;;;18.50;99.90;;;;;;5038325;28;20405;-68
2023/07/20 07:00:17;;;;;;;4.80;2.50;;;19.20;99.90;;;;;;5041588;28;20856;-70
2023/07/20 07:02:43;;;;;;;4.63;3.20;;;20.60;99.90;;;;;;5061825;28;20303;-68
2023/07/20 07:05:09;;;;;;;3.10;2.87;;;20.70;99.90;;;;;;5057866;28;20527;-70
2023/07/20 07:07:35;;;;;;;12.10;4.50;;;21.10;99.90;;;;;;5064237;28;20196;-70
2023/07/20 07:10:04;;;;;;;2.10;1.90;;;22.10;99.90;;;;;;5067110;28;20181;-70
2023/07/20 07:12:30;;;;;;;2.70;1.97;;;22.70;99.90;;;;;;5062870;28;20986;-69
2023/07/20 07:14:56;;;;;;;1.90;1.30;;;22.90;99.90;;;;;;5063913;28;20463;-70
2023/07/20 07:17:21;;;;;;;1.53;1.43;;;22.70;99.90;;;;;;5061508;28;20561;-70
2023/07/20 07:19:47;;;;;;;3.33;2.67;;;23.10;99.90;;;;;;5061937;28;20170;-72
2023/07/20 07:22:13;;;;;;;2.70;1.60;;;23.60;99.90;;;;;;5060311;28;20245;-69
2023/07/20 07:24:41;;;;;;;4.17;2.30;;;21.60;99.90;;;;;;5062425;28;20664;-68
2023/07/20 07:27:07;;;;;;;2.70;2.10;;;21.90;99.90;;;;;;5028621;28;20772;-69
2023/07/20 07:29:33;;;;;;;4.20;2.93;;;23.60;99.90;;;;;;5061218;28;20425;-70
2023/07/20 07:31:59;;;;;;;3.20;1.80;;;25.10;99.90;;;;;;5058833;28;20462;-70
2023/07/20 07:34:26;;;;;;;1.70;1.60;;;25.20;99.90;;;;;;5063372;28;20201;-69
2023/07/20 07:36:51;;;;;;;1.43;1.03;;;23.70;99.90;;;;;;5061193;28;20774;-68
2023/07/20 07:39:17;;;;;;;3.20;1.73;;;23.60;99.90;;;;;;5064556;28;20420;-70
2023/07/20 07:41:43;;;;;;;1.70;1.27;;;24.70;99.90;;;;;;5061527;28;20194;-69
2023/07/20 07:44:08;;;;;;;2.43;1.10;;;25.30;99.90;;;;;;5063734;28;20247;-69
2023/07/20 07:46:34;;;;;;;5.43;2.33;;;25.60;99.90;;;;;;5058737;28;20285;-69
2023/07/20 07:49:08;;;;;;;1.10;1.00;;;25.10;99.90;;;;;;5060752;28;20200;-70
2023/07/20 07:51:34;;;;;;;1.07;0.97;;;24.20;99.90;;;;;;5058828;28;20178;-70
2023/07/20 07:54:00;;;;;;;1.70;1.33;;;23.30;99.90;;;;;;5043163;28;20463;-72
2023/07/20 07:56:25;;;;;;;1.23;1.13;;;24.10;99.90;;;;;;5064470;28;20662;-69
2023/07/20 07:58:54;;;;;;;1.40;1.10;;;24.70;99.90;;;;;;5067404;28;20854;-69
2023/07/20 08:01:19;;;;;;;2.03;1.93;;;25.30;99.90;;;;;;5068448;28;20186;-70
2023/07/20 08:03:48;;;;;;;1.53;1.43;;;25.20;99.90;;;;;;5066226;28;20455;-70
2023/07/20 08:06:14;;;;;;;2.00;1.30;;;25.40;99.90;;;;;;5070854;28;20197;-70
2023/07/20 08:08:40;;;;;;;1.27;0.93;;;25.00;99.90;;;;;;5065403;28;20450;-70
2023/07/20 08:11:05;;;;;;;1.20;1.10;;;24.40;99.90;;;;;;5064195;28;20424;-69
2023/07/20 08:13:32;;;;;;;1.50;1.00;;;23.50;99.90;;;;;;5070191;28;20284;-69
2023/07/20 08:15:58;;;;;;;1.40;1.30;;;22.80;99.90;;;;;;5066427;28;20178;-72
2023/07/20 08:18:24;;;;;;;3.30;1.10;;;22.80;99.90;;;;;;5066624;28;20426;-70
2023/07/20 08:23:19;;;;;;;2.13;1.20;;;22.40;99.90;;;;;;5065372;28;20488;-66
2023/07/20 08:25:51;;;;;;;1.10;1.00;;;22.00;99.90;;;;;;5066676;28;20434;-68
2023/07/20 08:28:17;;;;;;;2.63;1.30;;;22.70;99.90;;;;;;5060422;28;20788;-65
2023/07/20 08:30:47;;;;;;;1.50;1.40;;;23.10;99.90;;;;;;5067163;28;20478;-66
2023/07/20 08:33:14;;;;;;;1.30;1.20;;;23.20;99.90;;;;;;5046311;28;20183;-66
2023/07/20 08:35:40;;;;;;;1.23;1.03;;;23.80;99.90;;;;;;5049200;28;20432;-67
2023/07/20 08:38:07;;;;;;;1.00;0.90;;;22.40;99.90;;;;;;5022660;28;20429;-66
2023/07/20 08:40:34;;;;;;;1.33;1.00;;;22.30;99.90;;;;;;5043613;28;20549;-65
2023/07/20 08:43:00;;;;;;;1.20;0.90;;;22.90;99.90;;;;;;5027800;28;20453;-67
2023/07/20 08:45:31;;;;;;;1.30;1.00;;;22.70;99.90;;;;;;5042272;28;20397;-67
2023/07/20 08:47:58;;;;;;;1.17;0.90;;;22.50;99.90;;;;;;5050559;28;20523;-66
2023/07/20 08:50:26;;;;;;;3.00;1.10;;;23.10;99.90;;;;;;5054155;28;20503;-66
2023/07/20 08:52:53;;;;;;;1.30;0.93;;;23.60;99.90;;;;;;5030322;28;20483;-65
2023/07/20 08:55:22;;;;;;;1.10;0.97;;;24.80;99.90;;;;;;5052006;28;20437;-64
2023/07/20 08:57:53;;;;;;;1.70;0.80;;;24.30;99.90;;;;;;5038984;28;20415;-66
2023/07/20 09:00:20;;;;;;;1.10;0.70;;;24.30;99.90;;;;;;5049231;28;20409;-67
2023/07/20 09:02:46;;;;;;;0.70;0.70;;;24.60;99.90;;;;;;5039962;28;20464;-65
2023/07/20 09:05:14;;;;;;;0.80;0.80;;;25.00;99.90;;;;;;5051759;28;20496;-65
2023/07/20 09:07:40;;;;;;;1.60;0.90;;;25.50;99.90;;;;;;5051925;28;20419;-65
2023/07/20 09:10:07;;;;;;;1.10;0.70;;;25.10;99.90;;;;;;5062612;28;20431;-66
2023/07/20 09:12:40;;;;;;;1.27;0.77;;;24.80;99.90;;;;;;5039830;28;20461;-67
2023/07/20 09:15:07;;;;;;;2.20;0.83;;;24.00;99.90;;;;;;5058080;28;20424;-65
2023/07/20 09:17:33;;;;;;;1.00;0.90;;;24.10;99.90;;;;;;5058851;28;20512;-65
2023/07/20 09:20:10;;;;;;;2.97;1.10;;;24.60;99.90;;;;;;5052232;28;20413;-66
2023/07/20 09:22:41;;;;;;;2.03;0.77;;;25.10;99.90;;;;;;5049033;28;20464;-65
2023/07/20 09:25:15;;;;;;;0.93;0.90;;;24.80;99.90;;;;;;5045392;28;20508;-65
2023/07/20 09:27:43;;;;;;;1.10;0.80;;;24.30;99.90;;;;;;5049661;28;20427;-67
2023/07/20 09:30:11;;;;;;;1.23;0.83;;;24.60;99.90;;;;;;5044743;28;20416;-66
2023/07/20 09:32:46;;;;;;;0.80;0.70;;;24.50;99.90;;;;;;5048817;28;20491;-65
2023/07/20 09:35:16;;;;;;;1.00;0.90;;;23.50;99.90;;;;;;5047247;28;20779;-65
2023/07/20 09:38:00;;;;;;;1.13;0.70;;;23.50;99.90;;;;;;5053504;28;20460;-65
2023/07/20 09:40:29;;;;;;;2.07;1.00;;;22.60;99.90;;;;;;5045412;28;20425;-66
2023/07/20 09:42:59;;;;;;;1.47;0.90;;;22.80;99.90;;;;;;5046877;28;20925;-67
2023/07/20 09:45:36;;;;;;;1.00;0.90;;;22.40;99.90;;;;;;5051162;28;20440;-69
2023/07/20 09:48:09;;;;;;;1.20;1.00;;;21.90;99.90;;;;;;5043052;28;20417;-68
2023/07/20 09:50:51;;;;;;;1.80;0.90;;;22.10;99.90;;;;;;5046169;28;20413;-73
2023/07/20 09:53:18;;;;;;;1.17;1.07;;;21.60;99.90;;;;;;5040736;28;20430;-67
2023/07/20 09:55:48;;;;;;;0.90;0.90;;;21.10;99.90;;;;;;5042951;28;20412;-65
2023/07/20 09:58:15;;;;;;;0.90;0.70;;;21.00;99.90;;;;;;5028967;28;20948;-71
2023/07/20 10:00:46;;;;;;;1.10;0.90;;;21.10;99.90;;;;;;5049839;28;20523;-67
2023/07/20 10:03:17;;;;;;;1.07;0.97;;;20.60;99.90;;;;;;5035244;28;20462;-68
2023/07/20 10:05:51;;;;;;;1.20;1.10;;;20.50;99.90;;;;;;5048741;28;20433;-66
2023/07/20 10:08:20;;;;;;;1.97;1.50;;;20.70;99.90;;;;;;5043477;28;20800;-66
2023/07/20 10:10:47;;;;;;;1.27;1.10;;;20.50;99.90;;;;;;5048557;28;20895;-65
2023/07/20 10:13:27;;;;;;;1.23;1.13;;;20.50;99.90;;;;;;5051214;28;20409;-66
2023/07/20 10:16:14;;;;;;;1.93;1.10;;;20.50;99.90;;;;;;5039884;28;21002;-66
2023/07/20 10:19:10;;;;;;;1.20;0.90;;;20.60;99.90;;;;;;5049627;28;20399;-66
2023/07/20 10:21:42;;;;;;;1.53;1.03;;;20.30;99.90;;;;;;5048684;28;20462;-66
2023/07/20 10:24:08;;;;;;;4.20;1.40;;;20.90;99.90;;;;;;5048049;28;20458;-67
2023/07/20 10:26:34;;;;;;;2.70;1.63;;;21.00;99.90;;;;;;5039182;28;20940;-66
2023/07/20 10:29:01;;;;;;;2.10;1.40;;;21.30;99.90;;;;;;5020424;28;20419;-65
2023/07/20 10:31:28;;;;;;;1.50;1.37;;;21.10;99.90;;;;;;5042927;28;20469;-66
2023/07/20 10:33:56;;;;;;;2.00;0.90;;;21.00;99.90;;;;;;5046509;28;20777;-68
2023/07/20 10:36:29;;;;;;;1.33;1.20;;;21.30;99.90;;;;;;5050877;28;20413;-66
2023/07/20 10:38:57;;;;;;;1.40;1.27;;;20.80;99.90;;;;;;5048701;28;20418;-68
2023/07/20 10:41:33;;;;;;;3.00;1.40;;;21.10;99.90;;;;;;5050758;28;20437;-66
2023/07/20 10:44:01;;;;;;;2.63;2.30;;;21.40;99.90;;;;;;5056140;28;20428;-67
2023/07/20 10:46:35;;;;;;;1.83;1.00;;;21.40;99.90;;;;;;5051474;28;20430;-66
2023/07/20 10:49:05;;;;;;;1.60;1.20;;;21.40;99.90;;;;;;5051412;28;20816;-66
2023/07/20 10:51:46;;;;;;;2.00;1.13;;;21.30;99.90;;;;;;5050899;28;20433;-66
2023/07/20 10:54:17;;;;;;;1.10;1.00;;;21.90;99.90;;;;;;5047507;28;20437;-66
2023/07/20 10:56:44;;;;;;;2.50;1.07;;;22.20;99.90;;;;;;5050874;28;20410;-67
2023/07/20 10:59:40;;;;;;;1.10;1.00;;;21.90;99.90;;;;;;5051083;28;20466;-66
2023/07/20 11:02:07;;;;;;;1.07;0.90;;;21.30;99.90;;;;;;5049595;28;20450;-66
2023/07/20 11:04:40;;;;;;;0.90;0.90;;;21.80;99.90;;;;;;5051110;28;20813;-66
2023/07/20 11:07:08;;;;;;;1.00;0.80;;;22.00;99.90;;;;;;5050981;28;20428;-66
2023/07/20 11:09:38;;;;;;;1.30;0.90;;;21.50;99.90;;;;;;5051269;28;20959;-66
2023/07/20 11:12:15;;;;;;;1.13;1.03;;;21.90;99.90;;;;;;5053791;28;20432;-67
2023/07/20 11:14:54;;;;;;;3.83;1.87;;;22.40;99.90;;;;;;5052904;28;20403;-67
2023/07/20 11:17:22;;;;;;;1.30;1.03;;;22.40;99.90;;;;;;5050869;28;20440;-67
2023/07/20 11:19:56;;;;;;;1.73;0.90;;;21.90;99.90;;;;;;5057798;28;20412;-66
2023/07/20 11:22:22;;;;;;;1.10;0.90;;;21.50;99.90;;;;;;5046586;28;20556;-67
2023/07/20 11:24:49;;;;;;;1.30;0.97;;;22.00;99.90;;;;;;5032819;28;20499;-65
2023/07/20 11:27:15;;;;;;;1.57;1.37;;;22.20;99.90;;;;;;5050775;28;20227;-66
2023/07/20 11:29:41;;;;;;;1.20;1.10;;;22.50;99.90;;;;;;5050911;28;20401;-66
2023/07/20 11:32:07;;;;;;;2.20;0.80;;;22.80;99.90;;;;;;5041287;28;20493;-67
2023/07/20 11:34:34;;;;;;;2.10;1.13;;;22.70;99.90;;;;;;5048988;28;20919;-66
2023/07/20 11:36:59;;;;;;;1.20;1.00;;;22.10;99.90;;;;;;5047364;28;20409;-67
2023/07/20 11:39:25;;;;;;;1.47;1.10;;;22.50;99.90;;;;;;5054517;28;20416;-67
2023/07/20 11:41:55;;;;;;;2.90;1.00;;;23.00;99.90;;;;;;5047413;28;20478;-66
2023/07/20 11:44:26;;;;;;;1.00;0.83;;;23.60;99.90;;;;;;5048797;28;20578;-66
2023/07/20 11:47:03;;;;;;;3.13;0.90;;;23.70;99.90;;;;;;5049264;28;20416;-67
2023/07/20 11:49:29;;;;;;;1.40;1.10;;;23.30;99.90;;;;;;5042315;28;20435;-67
2023/07/20 11:51:56;;;;;;;1.60;1.50;;;22.70;99.90;;;;;;5062158;28;20433;-68
2023/07/20 11:54:22;;;;;;;0.73;0.73;;;23.10;99.90;;;;;;5053053;28;20198;-67
2023/07/20 11:56:48;;;;;;;1.87;1.67;;;22.90;99.90;;;;;;5040676;28;20424;-68
2023/07/20 11:59:14;;;;;;;1.60;1.30;;;22.80;99.90;;;;;;5051811;28;20413;-69
2023/07/20 12:01:39;;;;;;;2.17;1.10;;;22.80;99.90;;;;;;5050040;28;20203;-68
2023/07/20 12:04:06;;;;;;;0.80;0.80;;;22.90;99.90;;;;;;5056256;28;20186;-68
2023/07/20 12:06:32;;;;;;;6.07;5.30;;;22.20;99.90;;;;;;5042696;28;20189;-67
2023/07/20 12:08:59;;;;;;;4.60;4.17;;;22.40;99.90;;;;;;5053935;28;20413;-68
2023/07/20 12:11:34;;;;;;;2.50;2.30;;;21.80;99.90;;;;;;5023480;28;20230;-67
2023/07/20 12:14:00;;;;;;;1.00;0.90;;;21.80;99.90;;;;;;5058698;28;20411;-66
2023/07/20 12:16:29;;;;;;;1.10;0.90;;;21.30;99.90;;;;;;5048533;28;20931;-66
2023/07/20 12:19:06;;;;;;;1.60;0.90;;;21.10;99.90;;;;;;5045982;28;20205;-66
2023/07/20 12:21:34;;;;;;;5.90;4.57;;;20.90;99.90;;;;;;5056099;28;20511;-66
2023/07/20 12:24:00;;;;;;;1.33;1.10;;;21.00;99.90;;;;;;5045382;28;20428;-66
2023/07/20 12:26:28;;;;;;;1.00;0.80;;;21.00;99.90;;;;;;5049462;28;20420;-65
2023/07/20 12:28:54;;;;;;;0.80;0.80;;;21.00;99.90;;;;;;5051240;28;20236;-66
2023/07/20 12:31:22;;;;;;;0.93;0.83;;;21.40;99.90;;;;;;5057435;28;20426;-67
2023/07/20 12:33:48;;;;;;;1.73;1.27;;;21.60;99.90;;;;;;5049415;28;20420;-67
2023/07/20 12:36:14;;;;;;;1.57;1.00;;;21.10;99.90;;;;;;5041244;28;20424;-66
2023/07/20 12:38:41;;;;;;;1.70;1.20;;;21.20;99.90;;;;;;5051246;28;20471;-65
2023/07/20 12:41:07;;;;;;;1.57;0.70;;;21.40;99.90;;;;;;5048054;28;20197;-69
2023/07/20 12:43:33;;;;;;;2.30;0.80;;;21.30;99.90;;;;;;5061201;28;20451;-67
2023/07/20 12:45:59;;;;;;;2.73;0.90;;;21.90;99.90;;;;;;5048445;28;20558;-67
2023/07/20 12:48:24;;;;;;;1.33;0.80;;;22.30;99.90;;;;;;5047611;28;20244;-68
2023/07/20 12:50:50;;;;;;;3.20;1.87;;;22.10;99.90;;;;;;5058377;28;20945;-67